Time;durP1;ratioP1;P1;durP2;ratioP2;P2;SDS_P1;SDS_P2;PMS_P1;PMS_P2;Temp;Humidity;BMP_temperature;BMP_pressure;BME280_temperature;BME280_humidity;BME280_pressure;Samples;Min_cycle;Max_cycle;Signal;HPM_P1;HPM_P2
2021/03/17 00:00:33;;;;;;;4.17;1.70;;;5.50;99.90;;;;;;5031470;28;20208;-72
2021/03/17 00:03:19;;;;;;;3.03;1.50;;;5.50;99.90;;;;;;5029934;28;20218;-71
2021/03/17 00:06:05;;;;;;;2.27;1.63;;;5.40;99.90;;;;;;5031792;28;20666;-72
2021/03/17 00:08:49;;;;;;;1.60;1.50;;;5.50;99.90;;;;;;5014399;28;20202;-72
2021/03/17 00:11:36;;;;;;;3.43;1.60;;;5.60;99.90;;;;;;5028978;28;20201;-72
2021/03/17 00:14:21;;;;;;;1.97;1.80;;;5.50;99.90;;;;;;5029572;28;20273;-73
2021/03/17 00:17:06;;;;;;;1.87;1.77;;;5.50;99.90;;;;;;5030563;28;20256;-72
2021/03/17 00:19:51;;;;;;;4.70;1.73;;;5.60;99.90;;;;;;5032038;28;20612;-72
2021/03/17 00:22:36;;;;;;;2.87;1.67;;;5.60;99.90;;;;;;5030754;28;20244;-73
2021/03/17 00:25:23;;;;;;;3.00;2.00;;;5.60;99.90;;;;;;5031782;28;20260;-73
2021/03/17 00:28:10;;;;;;;1.87;1.67;;;5.60;99.90;;;;;;5030226;28;20343;-71
2021/03/17 00:30:58;;;;;;;2.40;1.60;;;5.60;99.90;;;;;;5031704;28;20221;-72
2021/03/17 00:33:44;;;;;;;2.20;1.70;;;5.60;99.90;;;;;;5031670;28;20218;-73
2021/03/17 00:36:29;;;;;;;3.40;1.90;;;5.60;99.90;;;;;;5027679;28;20697;-72
2021/03/17 00:39:15;;;;;;;5.93;2.17;;;5.60;99.90;;;;;;5029282;28;20562;-73
2021/03/17 00:42:00;;;;;;;3.13;2.07;;;5.60;99.90;;;;;;5024609;28;20222;-73
2021/03/17 00:44:53;;;;;;;3.03;1.93;;;5.50;99.90;;;;;;5030843;28;20210;-72
2021/03/17 00:47:39;;;;;;;2.00;1.70;;;5.50;99.90;;;;;;5030787;28;20242;-72
2021/03/17 00:50:18;;;;;;;2.80;1.70;;;5.50;99.90;;;;;;5029570;28;20202;-73
2021/03/17 00:52:48;;;;;;;6.23;1.93;;;5.30;99.90;;;;;;5027255;28;20216;-72
2021/03/17 00:55:23;;;;;;;2.93;1.70;;;5.50;99.90;;;;;;5029431;28;20654;-73
2021/03/17 00:57:58;;;;;;;8.53;2.53;;;5.60;99.90;;;;;;5030249;28;20210;-73
2021/03/17 01:00:27;;;;;;;4.17;2.40;;;5.60;99.90;;;;;;5029749;28;20692;-73
2021/03/17 01:02:54;;;;;;;3.00;2.03;;;5.50;99.90;;;;;;5030971;28;20205;-73
2021/03/17 01:05:21;;;;;;;9.00;2.43;;;5.50;99.90;;;;;;5029179;28;20256;-72
2021/03/17 01:07:48;;;;;;;2.77;2.03;;;5.60;99.90;;;;;;5025448;28;20686;-72
2021/03/17 01:10:18;;;;;;;11.33;3.63;;;5.60;99.90;;;;;;5029049;28;20564;-73
2021/03/17 01:12:45;;;;;;;10.50;3.40;;;5.60;99.90;;;;;;5030328;28;20623;-72
2021/03/17 01:15:14;;;;;;;2.43;1.50;;;5.60;99.90;;;;;;5029356;28;20585;-73
2021/03/17 01:17:42;;;;;;;1.93;1.07;;;5.60;99.90;;;;;;5030165;28;20209;-72
2021/03/17 01:20:10;;;;;;;0.90;0.90;;;5.50;99.90;;;;;;5030155;28;20643;-72
2021/03/17 01:22:38;;;;;;;1.17;0.90;;;5.50;99.90;;;;;;5028457;28;20299;-72
2021/03/17 01:25:08;;;;;;;2.37;0.80;;;5.50;99.90;;;;;;5028709;28;20265;-71
2021/03/17 01:27:35;;;;;;;0.80;0.80;;;5.40;99.90;;;;;;5030124;28;20198;-71
2021/03/17 01:30:02;;;;;;;0.77;0.77;;;5.40;99.90;;;;;;5018327;28;20280;-73
2021/03/17 01:32:33;;;;;;;2.53;0.80;;;5.40;99.90;;;;;;5034192;28;20653;-71
2021/03/17 01:35:03;;;;;;;0.87;0.60;;;5.40;99.90;;;;;;5019440;28;20297;-73
2021/03/17 01:37:30;;;;;;;0.50;0.50;;;5.40;99.90;;;;;;5030020;28;20202;-72
2021/03/17 01:39:57;;;;;;;0.60;0.60;;;5.40;99.90;;;;;;5021037;28;20329;-72
2021/03/17 01:42:23;;;;;;;2.73;0.60;;;5.40;99.90;;;;;;5028663;28;20237;-72
2021/03/17 01:44:50;;;;;;;1.17;0.57;;;5.40;99.90;;;;;;5030099;28;20631;-72
2021/03/17 01:47:20;;;;;;;0.60;0.60;;;5.30;99.90;;;;;;5028967;28;20207;-73
2021/03/17 01:49:46;;;;;;;1.73;0.63;;;5.20;99.90;;;;;;5030813;28;20662;-73
2021/03/17 01:52:14;;;;;;;0.60;0.60;;;5.30;99.90;;;;;;5031818;28;20287;-73
2021/03/17 01:54:41;;;;;;;0.53;0.53;;;5.30;99.90;;;;;;5034048;28;20252;-73
2021/03/17 01:57:09;;;;;;;0.67;0.50;;;5.30;99.90;;;;;;5032361;28;20210;-72
2021/03/17 01:59:36;;;;;;;15.57;4.43;;;5.20;99.90;;;;;;5033738;28;20254;-73
2021/03/17 02:02:03;;;;;;;13.77;2.90;;;5.20;99.90;;;;;;5035013;28;20317;-71
2021/03/17 02:04:31;;;;;;;19.70;4.13;;;5.20;99.90;;;;;;5032925;28;20206;-73
2021/03/17 02:06:58;;;;;;;11.57;2.83;;;5.10;99.90;;;;;;5033523;28;20190;-73
2021/03/17 02:09:25;;;;;;;4.60;1.43;;;5.10;99.90;;;;;;5015588;28;20302;-72
2021/03/17 02:12:03;;;;;;;1.63;1.13;;;5.10;99.90;;;;;;5033604;28;20182;-72
2021/03/17 02:14:39;;;;;;;1.03;0.90;;;5.10;99.90;;;;;;5030899;28;20661;-73
2021/03/17 02:17:12;;;;;;;1.83;1.10;;;5.20;99.90;;;;;;5034259;28;20331;-73
2021/03/17 02:20:01;;;;;;;1.33;1.00;;;5.20;99.90;;;;;;5033170;28;20248;-73
2021/03/17 02:22:43;;;;;;;2.93;1.10;;;5.20;99.90;;;;;;5031902;28;20218;-73
2021/03/17 02:25:28;;;;;;;2.03;1.00;;;5.20;99.90;;;;;;5031601;28;20210;-75
2021/03/17 02:28:08;;;;;;;2.53;1.30;;;5.20;99.90;;;;;;5030707;28;20674;-72
2021/03/17 02:31:14;;;;;;;1.10;1.10;;;5.30;99.90;;;;;;5032942;28;20570;-73
2021/03/17 02:33:55;;;;;;;1.83;1.40;;;5.30;99.90;;;;;;4899991;29;20731;-73
2021/03/17 02:36:28;;;;;;;1.80;1.30;;;5.30;99.90;;;;;;4892467;29;20209;-73
2021/03/17 02:39:03;;;;;;;2.00;1.30;;;5.30;99.90;;;;;;4894234;29;20712;-72
2021/03/17 02:41:38;;;;;;;1.37;1.27;;;5.30;99.90;;;;;;4879712;29;20217;-72
2021/03/17 02:44:10;;;;;;;3.90;1.10;;;5.40;99.90;;;;;;4878934;29;20222;-73
2021/03/17 02:46:40;;;;;;;2.77;1.20;;;5.40;99.90;;;;;;4896342;29;20203;-72
2021/03/17 02:49:16;;;;;;;4.70;1.40;;;5.30;99.90;;;;;;4888230;29;20267;-73
2021/03/17 02:51:46;;;;;;;1.10;1.00;;;5.30;99.90;;;;;;4875259;29;20203;-72
2021/03/17 02:54:14;;;;;;;2.87;1.30;;;5.30;99.90;;;;;;4890269;29;20322;-72
2021/03/17 02:56:45;;;;;;;3.33;1.40;;;5.30;99.90;;;;;;4894917;29;20289;-72
2021/03/17 02:59:17;;;;;;;9.03;1.47;;;5.20;99.90;;;;;;4868158;29;20290;-73
2021/03/17 03:01:45;;;;;;;5.90;1.10;;;5.20;99.90;;;;;;4893623;29;20223;-73
2021/03/17 03:04:14;;;;;;;1.43;1.10;;;5.20;99.90;;;;;;4891386;29;20215;-72
2021/03/17 03:06:44;;;;;;;2.90;1.20;;;5.10;99.90;;;;;;4895298;29;20203;-72
2021/03/17 03:09:12;;;;;;;3.43;1.50;;;5.10;99.90;;;;;;4883877;29;20290;-72
2021/03/17 03:11:39;;;;;;;5.57;1.80;;;5.10;99.90;;;;;;5023471;28;20516;-73
2021/03/17 03:14:07;;;;;;;3.80;2.03;;;5.00;99.90;;;;;;5022606;28;20315;-73
2021/03/17 03:16:35;;;;;;;4.27;1.87;;;5.10;99.90;;;;;;5032305;28;20251;-73
2021/03/17 03:19:05;;;;;;;3.23;1.40;;;5.00;99.90;;;;;;5031873;28;20268;-72
2021/03/17 03:21:33;;;;;;;1.90;1.00;;;5.00;99.90;;;;;;5030563;28;20223;-73
2021/03/17 03:24:02;;;;;;;3.37;1.17;;;4.90;99.90;;;;;;5030900;28;20241;-72
2021/03/17 03:26:30;;;;;;;1.00;1.00;;;5.00;99.90;;;;;;5032092;28;20215;-73
2021/03/17 03:28:57;;;;;;;1.37;0.67;;;4.90;99.90;;;;;;5031941;28;20277;-74
2021/03/17 03:31:25;;;;;;;1.43;1.00;;;4.90;99.90;;;;;;5015055;28;20622;-73
2021/03/17 03:33:51;;;;;;;2.23;1.23;;;4.80;99.90;;;;;;5037766;28;20190;-73
2021/03/17 03:36:18;;;;;;;3.77;1.30;;;4.80;99.90;;;;;;5032181;28;20194;-73
2021/03/17 03:38:46;;;;;;;3.03;1.67;;;4.70;99.90;;;;;;5031109;28;20237;-73
2021/03/17 03:41:15;;;;;;;6.73;1.20;;;4.70;99.90;;;;;;5010982;28;20234;-72
2021/03/17 03:43:43;;;;;;;1.40;1.30;;;4.60;99.90;;;;;;4997978;28;20214;-71
2021/03/17 03:46:10;;;;;;;3.03;1.17;;;4.60;99.90;;;;;;5031229;28;20206;-73
2021/03/17 03:48:37;;;;;;;2.40;1.30;;;4.60;99.90;;;;;;5032374;28;20190;-73
2021/03/17 03:51:05;;;;;;;5.47;1.60;;;4.50;99.90;;;;;;5031808;28;20278;-72
2021/03/17 03:53:47;;;;;;;3.43;1.53;;;4.50;99.90;;;;;;5030159;28;20213;-72
2021/03/17 03:56:23;;;;;;;2.53;1.27;;;4.40;99.90;;;;;;5032276;28;20225;-72
2021/03/17 03:58:54;;;;;;;1.83;1.13;;;4.40;99.90;;;;;;5029748;28;20278;-72
2021/03/17 04:01:27;;;;;;;4.53;1.63;;;4.40;99.90;;;;;;5030518;28;20222;-73
2021/03/17 04:03:57;;;;;;;5.83;2.00;;;4.40;99.90;;;;;;5014971;28;20248;-73
2021/03/17 04:06:26;;;;;;;2.23;2.00;;;4.40;99.90;;;;;;5029704;28;20202;-73
2021/03/17 04:08:57;;;;;;;1.60;1.50;;;4.40;99.90;;;;;;5025913;28;20198;-71
2021/03/17 04:11:25;;;;;;;4.77;2.00;;;4.30;99.90;;;;;;5029925;28;20198;-72
2021/03/17 04:13:53;;;;;;;1.20;1.10;;;4.20;99.90;;;;;;5030632;28;20221;-73
2021/03/17 04:16:24;;;;;;;6.27;1.50;;;4.20;99.90;;;;;;5031709;28;20543;-74
2021/03/17 04:18:51;;;;;;;2.33;1.23;;;4.10;99.90;;;;;;5032175;28;20202;-72
2021/03/17 04:21:21;;;;;;;3.77;1.00;;;4.10;99.90;;;;;;5029770;28;20306;-71
2021/03/17 04:23:50;;;;;;;3.67;1.07;;;4.00;99.90;;;;;;5028872;28;20218;-72
2021/03/17 04:26:19;;;;;;;4.40;1.23;;;3.90;99.90;;;;;;5030781;28;20206;-72
2021/03/17 04:28:48;;;;;;;1.73;1.20;;;3.90;99.90;;;;;;5031147;28;20191;-72
2021/03/17 04:31:16;;;;;;;3.70;1.13;;;3.90;99.90;;;;;;5030673;28;20194;-74
2021/03/17 04:33:44;;;;;;;2.07;1.40;;;3.80;99.90;;;;;;5035349;28;20203;-72
2021/03/17 04:36:12;;;;;;;2.37;1.40;;;3.80;99.90;;;;;;5029833;28;20202;-73
2021/03/17 04:38:41;;;;;;;6.03;1.57;;;3.80;99.90;;;;;;5013501;28;20210;-73
2021/03/17 04:41:08;;;;;;;3.40;1.23;;;3.80;99.90;;;;;;5030189;28;20587;-71
2021/03/17 04:43:38;;;;;;;1.10;1.00;;;3.70;99.90;;;;;;5028422;28;20632;-72
2021/03/17 04:46:06;;;;;;;1.50;1.10;;;3.70;99.90;;;;;;5031838;28;20206;-73
2021/03/17 04:48:35;;;;;;;4.43;1.73;;;3.70;99.90;;;;;;5027998;28;20194;-72
2021/03/17 04:51:04;;;;;;;2.10;1.30;;;3.80;99.90;;;;;;5029925;28;20268;-72
2021/03/17 04:53:30;;;;;;;1.30;0.90;;;3.80;99.90;;;;;;5030711;28;20203;-72
2021/03/17 04:55:57;;;;;;;2.73;1.00;;;3.80;99.90;;;;;;5031553;28;20194;-72
2021/03/17 04:58:27;;;;;;;3.33;1.20;;;3.90;99.90;;;;;;5028394;28;20237;-72
2021/03/17 05:00:54;;;;;;;1.53;0.90;;;3.90;99.90;;;;;;5031527;28;20190;-72
2021/03/17 05:03:24;;;;;;;1.67;0.90;;;3.80;99.90;;;;;;5029120;28;20269;-72
2021/03/17 05:05:52;;;;;;;2.30;1.00;;;3.90;99.90;;;;;;5031418;28;20284;-72
2021/03/17 05:08:20;;;;;;;0.70;0.70;;;3.80;99.90;;;;;;5025251;28;20839;-72
2021/03/17 05:10:48;;;;;;;2.40;1.00;;;3.90;99.90;;;;;;5022150;28;20592;-72
2021/03/17 05:13:17;;;;;;;2.63;0.93;;;3.90;99.90;;;;;;5012499;28;20427;-72
2021/03/17 05:15:46;;;;;;;1.60;0.90;;;3.90;99.90;;;;;;5013485;28;20225;-72
2021/03/17 05:18:18;;;;;;;1.70;0.87;;;3.90;99.90;;;;;;5029485;28;20202;-72
2021/03/17 05:20:49;;;;;;;1.70;0.90;;;3.90;99.90;;;;;;5029493;28;20617;-72
2021/03/17 05:23:17;;;;;;;1.80;0.80;;;3.90;99.90;;;;;;5027567;28;20562;-73
2021/03/17 05:25:45;;;;;;;1.20;0.80;;;3.90;99.90;;;;;;5029307;28;20214;-73
2021/03/17 05:28:15;;;;;;;1.00;0.80;;;3.90;99.90;;;;;;5035344;28;20594;-73
2021/03/17 05:30:46;;;;;;;3.43;1.20;;;4.00;99.90;;;;;;5028144;28;20680;-71
2021/03/17 05:33:14;;;;;;;2.43;0.90;;;4.00;99.90;;;;;;5038338;28;20205;-72
2021/03/17 05:35:41;;;;;;;2.60;0.83;;;4.00;99.90;;;;;;5028997;28;20194;-72
2021/03/17 05:38:09;;;;;;;1.23;0.90;;;4.00;99.90;;;;;;5030001;28;20201;-73
2021/03/17 05:40:36;;;;;;;2.13;0.87;;;4.00;99.90;;;;;;5029561;28;20234;-73
2021/03/17 05:43:04;;;;;;;4.13;1.10;;;4.00;99.90;;;;;;5029849;28;20323;-73
2021/03/17 05:45:33;;;;;;;3.17;1.10;;;4.10;99.90;;;;;;5030937;28;20190;-73
2021/03/17 05:48:01;;;;;;;1.67;0.80;;;4.10;99.90;;;;;;5028951;28;20260;-72
2021/03/17 05:50:28;;;;;;;1.80;0.70;;;4.10;99.90;;;;;;5030337;28;20194;-72
2021/03/17 05:52:56;;;;;;;0.80;0.73;;;4.10;99.90;;;;;;5030207;28;20202;-73
2021/03/17 05:55:24;;;;;;;2.60;0.90;;;4.10;99.90;;;;;;5012766;28;20217;-73
2021/03/17 05:57:51;;;;;;;1.17;0.90;;;4.10;99.90;;;;;;5028392;28;20206;-72
2021/03/17 06:00:19;;;;;;;2.80;0.90;;;4.20;99.90;;;;;;5030263;28;20194;-73
2021/03/17 06:02:48;;;;;;;7.17;1.00;;;4.20;99.90;;;;;;5020277;28;20225;-72
2021/03/17 06:05:17;;;;;;;1.97;0.80;;;4.30;99.90;;;;;;5030544;28;20202;-73
2021/03/17 06:07:54;;;;;;;1.20;0.60;;;4.20;99.90;;;;;;5026577;28;20191;-73
2021/03/17 06:10:22;;;;;;;1.87;1.30;;;4.30;99.90;;;;;;5000839;28;20213;-73
2021/03/17 06:12:51;;;;;;;0.53;0.53;;;4.30;99.90;;;;;;5029448;28;20198;-73
2021/03/17 06:15:22;;;;;;;1.27;0.80;;;4.30;99.90;;;;;;5018281;28;20199;-73
2021/03/17 06:17:55;;;;;;;1.20;0.80;;;4.20;99.90;;;;;;5030019;28;20252;-73
2021/03/17 06:20:22;;;;;;;3.20;1.00;;;4.20;99.90;;;;;;5012570;28;20249;-73
2021/03/17 06:22:49;;;;;;;2.93;0.90;;;4.20;99.90;;;;;;5011427;28;20830;-72
2021/03/17 06:25:17;;;;;;;1.90;0.87;;;4.30;99.90;;;;;;5028889;28;20260;-72
2021/03/17 06:27:44;;;;;;;2.53;1.00;;;4.30;99.90;;;;;;5027751;28;21092;-72
2021/03/17 06:30:13;;;;;;;0.70;0.70;;;4.30;99.90;;;;;;5028732;28;20252;-72
2021/03/17 06:32:40;;;;;;;2.87;1.20;;;4.30;99.90;;;;;;5016758;28;20204;-72
2021/03/17 06:35:18;;;;;;;3.67;1.03;;;4.30;99.90;;;;;;5012494;28;20209;-72
2021/03/17 06:37:45;;;;;;;1.57;1.27;;;4.30;99.90;;;;;;5030404;28;20559;-73
2021/03/17 06:40:23;;;;;;;6.77;1.70;;;4.30;99.90;;;;;;5031803;28;20202;-73
2021/03/17 06:42:50;;;;;;;1.00;1.00;;;4.50;99.90;;;;;;5029762;28;20256;-72
2021/03/17 06:45:30;;;;;;;3.13;1.40;;;4.70;99.90;;;;;;5033322;28;20205;-72
2021/03/17 06:47:57;;;;;;;2.03;1.37;;;4.90;99.90;;;;;;5032128;28;20194;-72
2021/03/17 06:50:29;;;;;;;1.30;1.20;;;4.90;99.90;;;;;;5031377;28;20209;-72
2021/03/17 06:52:56;;;;;;;4.13;1.20;;;5.00;99.90;;;;;;5032889;28;20199;-73
2021/03/17 06:55:24;;;;;;;1.80;1.20;;;4.90;99.90;;;;;;5032352;28;20523;-72
2021/03/17 06:57:52;;;;;;;9.33;1.40;;;4.80;99.90;;;;;;5030529;28;20233;-72
2021/03/17 07:00:27;;;;;;;2.17;1.17;;;4.80;99.90;;;;;;5014701;28;20212;-72
2021/03/17 07:02:57;;;;;;;1.10;1.10;;;4.80;99.90;;;;;;5031230;28;20218;-73
2021/03/17 07:05:40;;;;;;;4.50;1.10;;;4.90;99.90;;;;;;5032931;28;20775;-73
2021/03/17 07:08:09;;;;;;;2.80;1.50;;;4.90;99.90;;;;;;5028479;28;20569;-72
2021/03/17 07:10:38;;;;;;;3.13;1.73;;;4.90;99.90;;;;;;5023022;28;20305;-73
2021/03/17 07:13:07;;;;;;;1.23;0.90;;;4.90;99.90;;;;;;5030991;28;20530;-72
2021/03/17 07:15:37;;;;;;;3.67;1.70;;;4.90;99.90;;;;;;5031444;28;20202;-72
2021/03/17 07:18:16;;;;;;;3.23;1.40;;;4.80;99.90;;;;;;5031304;28;20574;-72
2021/03/17 07:20:46;;;;;;;7.13;2.37;;;4.80;99.90;;;;;;5032549;28;20214;-72
2021/03/17 07:23:39;;;;;;;1.80;1.70;;;4.80;99.90;;;;;;5030248;28;20242;-72
2021/03/17 07:26:16;;;;;;;4.43;1.80;;;4.80;99.90;;;;;;5031312;28;20202;-73
2021/03/17 07:29:05;;;;;;;3.83;2.13;;;4.80;99.90;;;;;;5012671;28;20297;-72
2021/03/17 07:31:34;;;;;;;2.97;2.10;;;4.90;99.90;;;;;;5031610;28;20451;-72
2021/03/17 07:34:10;;;;;;;2.13;1.40;;;4.90;99.90;;;;;;5035552;28;20213;-73
2021/03/17 07:36:39;;;;;;;1.20;1.10;;;5.00;99.90;;;;;;5029476;28;20289;-71
2021/03/17 07:39:09;;;;;;;2.57;1.10;;;4.90;99.90;;;;;;5032229;28;20633;-72
2021/03/17 07:41:38;;;;;;;1.93;1.30;;;4.90;99.90;;;;;;5029374;28;20360;-72
2021/03/17 07:44:08;;;;;;;3.60;1.60;;;4.90;99.90;;;;;;5029979;28;20264;-72
2021/03/17 07:46:37;;;;;;;3.60;1.70;;;5.00;99.90;;;;;;5026440;28;20226;-71
2021/03/17 07:49:06;;;;;;;6.60;1.30;;;4.90;99.90;;;;;;5030563;28;20202;-72
2021/03/17 07:51:36;;;;;;;2.27;1.40;;;5.00;99.90;;;;;;5023965;28;20194;-73
2021/03/17 07:54:04;;;;;;;2.27;1.60;;;4.90;99.90;;;;;;5023003;28;20198;-73
2021/03/17 07:56:32;;;;;;;6.47;1.53;;;4.90;99.90;;;;;;5025033;28;20225;-72
2021/03/17 07:58:59;;;;;;;6.57;1.80;;;5.00;99.90;;;;;;5026255;28;20633;-71
2021/03/17 08:01:29;;;;;;;8.77;2.07;;;5.00;99.90;;;;;;5025417;28;20353;-73
2021/03/17 08:03:57;;;;;;;6.60;1.90;;;4.90;99.90;;;;;;5022633;28;20198;-73
2021/03/17 08:06:24;;;;;;;6.27;1.83;;;4.90;99.90;;;;;;5008253;28;20213;-74
2021/03/17 08:08:51;;;;;;;4.90;1.90;;;4.90;99.90;;;;;;5010362;28;20200;-73
2021/03/17 08:11:20;;;;;;;4.43;2.10;;;4.90;99.90;;;;;;5026278;28;20277;-73
2021/03/17 08:13:50;;;;;;;1.70;1.60;;;4.90;99.90;;;;;;5010187;28;20222;-73
2021/03/17 08:16:20;;;;;;;1.90;1.50;;;4.90;99.90;;;;;;5026319;28;20240;-72
2021/03/17 08:18:48;;;;;;;2.90;1.80;;;5.10;99.90;;;;;;5027294;28;20229;-72
2021/03/17 08:21:48;;;;;;;2.80;1.50;;;5.10;99.90;;;;;;5021747;28;20230;-72
2021/03/17 08:24:44;;;;;;;6.73;1.40;;;5.10;99.90;;;;;;5025165;28;20230;-72
2021/03/17 08:27:22;;;;;;;2.53;1.57;;;5.10;99.90;;;;;;5003540;28;20206;-71
2021/03/17 08:30:10;;;;;;;3.60;2.00;;;5.10;99.90;;;;;;5026465;28;20342;-71
2021/03/17 08:32:55;;;;;;;3.37;1.80;;;5.10;99.90;;;;;;5025642;28;20682;-72
2021/03/17 08:35:22;;;;;;;3.77;1.67;;;5.10;99.90;;;;;;5025943;28;20229;-72
2021/03/17 08:37:53;;;;;;;1.77;1.67;;;5.20;99.90;;;;;;5026362;28;20205;-71
2021/03/17 08:40:46;;;;;;;3.60;1.77;;;5.30;99.90;;;;;;5024925;28;21380;-72
2021/03/17 08:43:45;;;;;;;2.40;1.40;;;5.30;99.90;;;;;;5025991;28;20222;-71
2021/03/17 08:46:14;;;;;;;5.77;1.47;;;5.40;99.90;;;;;;5022581;28;20198;-72
2021/03/17 08:49:00;;;;;;;2.00;1.30;;;5.50;99.90;;;;;;5024453;28;20206;-72
2021/03/17 08:52:03;;;;;;;3.50;0.90;;;5.60;99.90;;;;;;5023568;28;20195;-72
2021/03/17 08:54:49;;;;;;;3.73;1.10;;;5.80;99.90;;;;;;5022622;28;20194;-73
2021/03/17 08:57:17;;;;;;;3.37;1.40;;;6.10;99.90;;;;;;5016463;28;20306;-74
2021/03/17 08:59:46;;;;;;;4.03;1.47;;;6.30;99.90;;;;;;5025462;28;20196;-72
2021/03/17 09:02:20;;;;;;;2.50;1.40;;;6.50;99.90;;;;;;5026093;28;20206;-72
2021/03/17 09:04:48;;;;;;;2.40;1.20;;;6.50;99.90;;;;;;5021951;28;20571;-72
2021/03/17 09:07:16;;;;;;;5.50;1.17;;;6.60;99.90;;;;;;5023884;28;20245;-73
2021/03/17 09:09:48;;;;;;;4.83;1.47;;;6.70;99.90;;;;;;5024219;28;20218;-72
2021/03/17 09:12:16;;;;;;;3.43;1.47;;;6.80;99.90;;;;;;5024894;28;20210;-73
2021/03/17 09:14:42;;;;;;;2.97;1.30;;;7.00;99.90;;;;;;5023244;28;20202;-72
2021/03/17 09:17:23;;;;;;;1.10;1.00;;;7.30;99.90;;;;;;5027314;28;20285;-73
2021/03/17 09:20:31;;;;;;;1.47;0.80;;;7.50;99.90;;;;;;5022285;28;20520;-73
2021/03/17 09:23:05;;;;;;;2.37;0.97;;;7.90;99.90;;;;;;4941669;28;20257;-72
2021/03/17 09:25:35;;;;;;;2.27;1.10;;;8.10;99.90;;;;;;4945277;28;20778;-71
2021/03/17 09:28:18;;;;;;;2.27;0.97;;;8.10;99.90;;;;;;4928074;28;20223;-72
2021/03/17 09:30:48;;;;;;;1.50;0.87;;;8.10;99.90;;;;;;4929411;29;20203;-73
2021/03/17 09:33:18;;;;;;;4.63;1.10;;;8.00;99.90;;;;;;4932551;29;20434;-71
2021/03/17 09:35:55;;;;;;;2.43;1.40;;;8.00;99.90;;;;;;4929590;29;20644;-72
2021/03/17 09:38:25;;;;;;;1.60;1.00;;;7.90;99.90;;;;;;4926489;29;20207;-73
2021/03/17 09:40:58;;;;;;;2.73;1.30;;;7.90;99.90;;;;;;4928339;29;20306;-71
2021/03/17 09:43:36;;;;;;;4.13;1.67;;;7.80;99.90;;;;;;4940839;28;20314;-72
2021/03/17 09:46:18;;;;;;;17.60;3.20;;;7.70;99.90;;;;;;4943208;28;20752;-72
2021/03/17 09:48:45;;;;;;;3.17;1.10;;;7.60;99.90;;;;;;4944972;28;20708;-73
2021/03/17 09:51:16;;;;;;;1.77;1.10;;;7.60;99.90;;;;;;4928970;29;20303;-73
2021/03/17 09:53:44;;;;;;;1.20;1.10;;;7.60;99.90;;;;;;4928644;29;20418;-72
2021/03/17 09:56:13;;;;;;;3.43;0.90;;;7.60;99.90;;;;;;4911582;28;20679;-75
2021/03/17 09:58:41;;;;;;;1.13;0.77;;;7.60;99.90;;;;;;4926893;29;20212;-73
2021/03/17 10:01:09;;;;;;;4.77;0.97;;;7.50;99.90;;;;;;5023227;28;20658;-73
2021/03/17 10:03:36;;;;;;;5.27;0.90;;;7.50;99.90;;;;;;5022612;28;20231;-73
2021/03/17 10:06:03;;;;;;;1.30;1.03;;;7.40;99.90;;;;;;5025996;28;20201;-72
2021/03/17 10:08:33;;;;;;;2.03;1.00;;;7.30;99.90;;;;;;5021478;28;20206;-72
2021/03/17 10:11:01;;;;;;;8.50;2.00;;;7.10;99.90;;;;;;5023580;28;21238;-72
2021/03/17 10:13:34;;;;;;;6.77;1.83;;;7.00;99.90;;;;;;5023739;28;20702;-73
2021/03/17 10:16:01;;;;;;;8.27;1.90;;;7.00;99.90;;;;;;5028923;28;20199;-73
2021/03/17 10:18:28;;;;;;;4.43;1.40;;;7.00;99.90;;;;;;5027352;28;20199;-75
2021/03/17 10:20:55;;;;;;;0.90;0.90;;;7.10;99.90;;;;;;5028629;28;20209;-72
2021/03/17 10:23:23;;;;;;;0.80;0.80;;;7.10;99.90;;;;;;5025020;28;20239;-73
2021/03/17 10:25:51;;;;;;;3.40;1.20;;;7.10;99.90;;;;;;5024107;28;20278;-72
2021/03/17 10:28:20;;;;;;;5.73;1.20;;;7.10;99.90;;;;;;5026322;28;20223;-71
2021/03/17 10:30:49;;;;;;;2.90;1.10;;;7.10;99.90;;;;;;5028851;28;20212;-71
2021/03/17 10:33:20;;;;;;;2.73;1.30;;;7.00;99.90;;;;;;5031801;28;20208;-71
2021/03/17 10:35:47;;;;;;;1.97;1.50;;;7.10;99.90;;;;;;5027504;28;20204;-71
2021/03/17 10:38:15;;;;;;;2.03;1.20;;;7.10;99.90;;;;;;5011590;28;20192;-73
2021/03/17 10:40:42;;;;;;;0.90;0.90;;;7.10;99.90;;;;;;5028718;28;20203;-72
2021/03/17 10:43:10;;;;;;;2.40;1.10;;;7.30;99.90;;;;;;5026937;28;20263;-71
2021/03/17 10:45:47;;;;;;;4.80;1.20;;;7.60;99.90;;;;;;5027672;28;20543;-71
2021/03/17 10:48:16;;;;;;;7.03;1.30;;;7.80;99.90;;;;;;5024264;28;20244;-71
2021/03/17 10:50:44;;;;;;;1.93;1.20;;;8.10;99.90;;;;;;4988584;28;20210;-71
2021/03/17 10:53:16;;;;;;;8.43;1.30;;;8.50;99.90;;;;;;5006955;28;20191;-74
2021/03/17 10:55:44;;;;;;;1.37;1.20;;;9.00;99.90;;;;;;5005222;28;20209;-71
2021/03/17 10:58:13;;;;;;;2.10;1.40;;;9.40;99.90;;;;;;5027354;28;20199;-71
2021/03/17 11:00:41;;;;;;;6.03;1.70;;;9.60;99.90;;;;;;5026431;28;21750;-70
2021/03/17 11:03:23;;;;;;;1.90;1.23;;;9.80;99.90;;;;;;5028127;28;20214;-71
2021/03/17 11:05:50;;;;;;;4.23;1.43;;;10.50;99.90;;;;;;5024324;28;20194;-72
2021/03/17 11:08:19;;;;;;;2.20;1.37;;;11.50;99.90;;;;;;5009215;28;20200;-71
2021/03/17 11:11:04;;;;;;;4.10;1.13;;;12.20;98.50;;;;;;5029466;28;20184;-71
2021/03/17 11:13:42;;;;;;;1.83;1.10;;;13.10;94.50;;;;;;5008675;28;20212;-71
2021/03/17 11:16:14;;;;;;;4.13;1.00;;;13.70;90.20;;;;;;5029025;28;20245;-70
2021/03/17 11:18:48;;;;;;;1.90;0.83;;;13.70;85.20;;;;;;5027022;28;20205;-70
2021/03/17 11:21:23;;;;;;;2.90;0.93;;;14.20;82.60;;;;;;5026985;28;20209;-71
2021/03/17 11:23:51;;;;;;;0.80;0.80;;;14.40;80.20;;;;;;5019460;28;20720;-71
2021/03/17 11:26:25;;;;;;;1.20;0.80;;;14.70;76.50;;;;;;5028142;28;20191;-71
2021/03/17 11:28:53;;;;;;;1.27;0.70;;;14.80;74.50;;;;;;4998018;28;20194;-70
2021/03/17 11:31:38;;;;;;;1.63;0.70;;;14.00;74.50;;;;;;5027049;28;20201;-71
2021/03/17 11:34:17;;;;;;;4.30;1.20;;;13.00;75.70;;;;;;5031261;28;20609;-71
2021/03/17 11:36:45;;;;;;;6.00;1.00;;;12.80;79.00;;;;;;5027102;28;20291;-69
2021/03/17 11:39:13;;;;;;;1.40;0.97;;;13.20;78.70;;;;;;5026896;28;20571;-71
2021/03/17 11:41:42;;;;;;;4.07;1.37;;;13.80;76.40;;;;;;5024892;28;20205;-70
2021/03/17 11:44:13;;;;;;;2.97;0.90;;;14.10;75.50;;;;;;5026319;28;20254;-72
2021/03/17 11:46:40;;;;;;;1.83;1.20;;;14.00;73.90;;;;;;5022275;28;20252;-71
2021/03/17 11:49:08;;;;;;;12.30;3.20;;;14.10;73.10;;;;;;5020856;28;20204;-71
2021/03/17 11:51:35;;;;;;;16.20;3.47;;;13.90;71.40;;;;;;5025613;28;20202;-72
2021/03/17 11:54:02;;;;;;;7.50;1.50;;;13.80;71.10;;;;;;5026663;28;20202;-71
2021/03/17 11:56:29;;;;;;;2.43;1.40;;;13.90;70.90;;;;;;5026992;28;20258;-71
2021/03/17 11:58:56;;;;;;;4.30;1.47;;;14.20;70.20;;;;;;5026541;28;20650;-71
2021/03/17 12:01:23;;;;;;;5.17;1.00;;;14.20;69.80;;;;;;5026723;28;20218;-71
2021/03/17 12:03:49;;;;;;;1.07;0.97;;;13.70;67.80;;;;;;5026755;28;20287;-71
2021/03/17 12:06:20;;;;;;;3.10;0.90;;;13.00;68.10;;;;;;5026215;28;20251;-71
2021/03/17 12:08:47;;;;;;;2.57;1.03;;;12.50;70.70;;;;;;5021699;28;20226;-71
2021/03/17 12:11:13;;;;;;;8.03;1.07;;;12.20;72.10;;;;;;5028163;28;20265;-71
2021/03/17 12:13:41;;;;;;;1.20;1.10;;;11.80;72.70;;;;;;5023914;28;20234;-71
2021/03/17 12:16:08;;;;;;;1.47;0.93;;;11.50;73.90;;;;;;5026974;28;20291;-71
2021/03/17 12:18:35;;;;;;;2.43;0.93;;;11.20;75.20;;;;;;5022317;28;20694;-71
2021/03/17 12:21:02;;;;;;;1.43;0.90;;;10.80;76.40;;;;;;5023241;28;20220;-70
2021/03/17 12:23:30;;;;;;;3.80;0.90;;;10.60;77.50;;;;;;5021194;28;20571;-71
2021/03/17 12:25:56;;;;;;;3.60;1.07;;;10.30;79.10;;;;;;5023365;28;20212;-71
2021/03/17 12:28:23;;;;;;;2.73;1.57;;;10.10;80.40;;;;;;5025179;28;20205;-71
2021/03/17 12:30:50;;;;;;;2.30;1.00;;;9.90;83.30;;;;;;5022373;28;20210;-71
2021/03/17 12:33:16;;;;;;;1.83;1.10;;;9.80;84.90;;;;;;5024904;28;20194;-72
2021/03/17 12:35:43;;;;;;;4.00;1.60;;;9.60;86.10;;;;;;5022038;28;20553;-71
2021/03/17 12:38:10;;;;;;;6.47;1.63;;;9.50;87.50;;;;;;5023970;28;20738;-71
2021/03/17 12:40:38;;;;;;;1.20;0.80;;;9.40;89.10;;;;;;5021323;28;20295;-70
2021/03/17 12:43:04;;;;;;;1.57;1.20;;;9.20;90.40;;;;;;5021464;28;20220;-70
2021/03/17 12:45:32;;;;;;;2.97;1.23;;;9.00;91.30;;;;;;5022405;28;20301;-70
2021/03/17 12:47:59;;;;;;;1.57;0.73;;;8.80;92.10;;;;;;5023866;28;20206;-70
2021/03/17 12:50:28;;;;;;;4.47;1.10;;;8.60;93.10;;;;;;5021121;28;20212;-71
2021/03/17 12:52:56;;;;;;;3.50;1.37;;;8.50;94.60;;;;;;5021988;28;20199;-71
2021/03/17 12:55:23;;;;;;;2.00;0.87;;;8.40;95.30;;;;;;5022287;28;20206;-71
2021/03/17 12:57:51;;;;;;;4.27;1.33;;;8.30;96.20;;;;;;5022722;28;20207;-73
2021/03/17 13:00:20;;;;;;;2.63;1.00;;;8.20;97.20;;;;;;5007307;28;20704;-72
2021/03/17 13:02:47;;;;;;;2.83;1.00;;;8.10;98.20;;;;;;5023853;28;20202;-70
2021/03/17 13:05:15;;;;;;;2.67;1.00;;;8.00;98.90;;;;;;5025621;28;20206;-71
2021/03/17 13:07:42;;;;;;;1.97;0.83;;;7.90;99.10;;;;;;5024763;28;20234;-70
2021/03/17 13:10:13;;;;;;;0.67;0.67;;;7.70;99.40;;;;;;5022604;28;20285;-71
2021/03/17 13:12:41;;;;;;;3.77;1.00;;;7.60;99.90;;;;;;5025257;28;20206;-72
2021/03/17 13:15:10;;;;;;;1.40;0.80;;;7.60;99.90;;;;;;5001596;28;20212;-72
2021/03/17 13:17:37;;;;;;;0.70;0.70;;;7.50;99.90;;;;;;5027730;28;20693;-71